Time;durP1;ratioP1;P1;durP2;ratioP2;P2;SDS_P1;SDS_P2;PMS_P1;PMS_P2;Temp;Humidity;BMP_temperature;BMP_pressure;BME280_temperature;BME280_humidity;BME280_pressure;Samples;Min_cycle;Max_cycle;Signal;HPM_P1;HPM_P2
2023/08/18 00:05:00;;;;;;;10.63;6.93;;;27.70;82.10;;;;;;6243135;22;20118;-78
2023/08/18 00:07:25;;;;;;;7.97;6.30;;;27.70;82.00;;;;;;6245445;23;20008;-77
2023/08/18 00:09:51;;;;;;;10.98;6.68;;;27.70;82.00;;;;;;6245476;23;20003;-77
2023/08/18 00:12:17;;;;;;;9.73;7.15;;;27.70;82.90;;;;;;6245293;23;20000;-78
2023/08/18 00:14:42;;;;;;;8.65;6.57;;;27.70;82.40;;;;;;6245737;23;19996;-77
2023/08/18 00:17:09;;;;;;;8.48;6.75;;;27.70;82.80;;;;;;6245094;23;20088;-78
2023/08/18 00:19:35;;;;;;;8.57;6.60;;;27.70;83.00;;;;;;6245494;23;19992;-75
2023/08/18 00:22:01;;;;;;;10.25;7.15;;;27.70;83.10;;;;;;6245100;23;20062;-77
2023/08/18 00:24:26;;;;;;;8.98;7.13;;;27.70;82.80;;;;;;6245249;23;20080;-77
2023/08/18 00:26:52;;;;;;;7.85;6.75;;;27.80;83.10;;;;;;6245153;23;20080;-78
2023/08/18 00:29:18;;;;;;;7.97;6.97;;;27.80;83.20;;;;;;6245290;23;20004;-77
2023/08/18 00:31:44;;;;;;;10.25;7.25;;;27.70;83.20;;;;;;6245451;23;20023;-77
2023/08/18 00:34:09;;;;;;;11.77;7.07;;;27.70;83.40;;;;;;6245107;23;20004;-77
2023/08/18 00:36:35;;;;;;;9.07;7.00;;;27.70;83.50;;;;;;6245069;23;20026;-77
2023/08/18 00:39:04;;;;;;;8.25;7.15;;;27.70;83.40;;;;;;6245457;23;20433;-76
2023/08/18 00:41:29;;;;;;;9.18;7.15;;;27.70;83.90;;;;;;6217725;23;20062;-78
2023/08/18 00:43:55;;;;;;;11.60;7.55;;;27.70;83.60;;;;;;6245134;23;20422;-77
2023/08/18 00:46:21;;;;;;;10.15;7.40;;;27.70;83.80;;;;;;6244924;23;20491;-77
2023/08/18 00:48:48;;;;;;;11.38;7.75;;;27.70;84.10;;;;;;6245042;23;20000;-78
2023/08/18 00:51:14;;;;;;;8.77;7.28;;;27.70;84.10;;;;;;6217737;23;20008;-77
2023/08/18 00:53:42;;;;;;;9.02;7.00;;;27.60;84.30;;;;;;6245340;23;20072;-77
2023/08/18 00:56:09;;;;;;;9.48;8.10;;;27.60;84.00;;;;;;6254879;23;20024;-76
2023/08/18 00:58:36;;;;;;;8.40;6.80;;;27.60;84.30;;;;;;6246200;23;20030;-76
2023/08/18 01:01:03;;;;;;;10.93;7.88;;;27.60;84.40;;;;;;6245269;23;20057;-77
2023/08/18 01:03:30;;;;;;;13.93;7.82;;;27.60;84.40;;;;;;6244748;23;20008;-72
2023/08/18 01:05:56;;;;;;;13.85;8.32;;;27.60;84.70;;;;;;6245018;23;20333;-76
2023/08/18 01:08:21;;;;;;;10.98;7.95;;;27.50;84.60;;;;;;6244574;23;20083;-76
2023/08/18 01:11:11;;;;;;;10.82;7.63;;;27.50;85.10;;;;;;6244755;23;20006;-77
2023/08/18 01:14:02;;;;;;;10.15;7.43;;;27.50;84.90;;;;;;6244852;23;20012;-79
2023/08/18 01:16:29;;;;;;;14.02;8.07;;;27.50;85.80;;;;;;6244929;23;20492;-78
2023/08/18 01:18:55;;;;;;;10.60;7.95;;;27.40;85.50;;;;;;6245016;23;20012;-78
2023/08/18 01:21:23;;;;;;;9.75;7.90;;;27.40;85.80;;;;;;6244502;23;19996;-77
2023/08/18 01:23:49;;;;;;;9.27;7.60;;;27.30;86.00;;;;;;6244589;23;20023;-77
2023/08/18 01:26:16;;;;;;;10.82;7.88;;;27.30;86.30;;;;;;6244588;23;20407;-76
2023/08/18 01:28:46;;;;;;;9.35;7.85;;;27.30;86.50;;;;;;6244606;23;20134;-77
2023/08/18 01:31:17;;;;;;;9.82;8.00;;;27.30;86.50;;;;;;6246210;23;20004;-79
2023/08/18 01:34:04;;;;;;;10.27;8.30;;;27.30;86.70;;;;;;6244575;23;20424;-77
2023/08/18 01:36:34;;;;;;;9.88;8.45;;;27.30;86.70;;;;;;6244482;23;20338;-78
2023/08/18 01:39:02;;;;;;;11.07;7.90;;;27.30;87.10;;;;;;6244585;23;20031;-77
2023/08/18 01:41:29;;;;;;;10.80;7.93;;;27.20;87.20;;;;;;6244716;23;20019;-78
2023/08/18 01:43:55;;;;;;;11.65;8.93;;;27.20;87.20;;;;;;6244582;23;20000;-75
2023/08/18 01:46:21;;;;;;;10.25;8.18;;;27.20;87.70;;;;;;6244633;23;20007;-77
2023/08/18 01:48:47;;;;;;;12.73;9.10;;;27.20;87.90;;;;;;6244816;23;20004;-77
2023/08/18 01:51:12;;;;;;;12.93;9.68;;;27.10;88.30;;;;;;6244509;23;20464;-76
2023/08/18 01:53:38;;;;;;;10.70;9.48;;;27.10;88.80;;;;;;6244835;23;20425;-78
2023/08/18 01:56:04;;;;;;;12.23;10.27;;;27.10;88.80;;;;;;6244523;23;20012;-77
2023/08/18 01:58:29;;;;;;;14.25;10.35;;;27.10;89.10;;;;;;6244192;23;20008;-74
2023/08/18 02:00:56;;;;;;;12.52;10.50;;;27.10;89.40;;;;;;6244761;23;20015;-76
2023/08/18 02:03:23;;;;;;;12.02;10.77;;;27.10;90.00;;;;;;6244411;23;20000;-77
2023/08/18 02:05:51;;;;;;;11.73;10.10;;;27.10;90.10;;;;;;6245159;23;20000;-77
2023/08/18 02:08:17;;;;;;;12.15;9.60;;;27.00;90.20;;;;;;6218762;23;20012;-78
2023/08/18 02:10:43;;;;;;;12.73;10.45;;;27.00;90.20;;;;;;6244678;23;20330;-76
2023/08/18 02:13:09;;;;;;;14.75;10.13;;;27.10;90.30;;;;;;6245314;23;20353;-76
2023/08/18 02:15:35;;;;;;;14.32;9.52;;;27.00;90.30;;;;;;6246502;23;20000;-77
2023/08/18 02:18:01;;;;;;;8.50;6.97;;;27.00;90.30;;;;;;6248219;23;20012;-77
2023/08/18 02:20:26;;;;;;;8.20;6.35;;;26.90;87.90;;;;;;6244382;23;20008;-79
2023/08/18 02:22:52;;;;;;;9.85;5.72;;;26.80;85.10;;;;;;6244901;23;20032;-77
2023/08/18 02:25:18;;;;;;;8.75;6.10;;;26.80;82.70;;;;;;6244685;23;20094;-75
2023/08/18 02:27:43;;;;;;;12.55;5.93;;;26.70;80.90;;;;;;6244383;23;20000;-76
2023/08/18 02:30:09;;;;;;;9.98;5.95;;;26.60;78.90;;;;;;6245936;23;20003;-77
2023/08/18 02:32:35;;;;;;;9.90;5.53;;;26.60;77.10;;;;;;6246446;23;20000;-79
2023/08/18 02:35:01;;;;;;;10.77;5.63;;;26.60;76.10;;;;;;6219399;23;20095;-76
2023/08/18 02:37:27;;;;;;;8.32;5.25;;;26.60;75.70;;;;;;6246427;23;20465;-77
2023/08/18 02:39:53;;;;;;;8.32;5.28;;;26.60;74.30;;;;;;6246022;23;20000;-76
2023/08/18 02:42:19;;;;;;;10.52;5.90;;;26.60;73.70;;;;;;6246236;23;20004;-77
2023/08/18 02:44:46;;;;;;;9.02;5.38;;;26.60;72.50;;;;;;6246208;23;20348;-80
2023/08/18 02:47:13;;;;;;;9.05;5.45;;;26.50;72.30;;;;;;6219227;23;20207;-77
2023/08/18 02:49:39;;;;;;;11.95;5.30;;;26.50;71.80;;;;;;6246218;23;20118;-77
2023/08/18 02:52:04;;;;;;;7.95;5.30;;;26.50;71.40;;;;;;6245776;23;20504;-76
2023/08/18 02:54:30;;;;;;;8.30;5.20;;;26.50;71.10;;;;;;6246013;23;20051;-76
2023/08/18 02:56:57;;;;;;;9.55;5.32;;;26.50;70.70;;;;;;6246248;23;20032;-78
2023/08/18 02:59:23;;;;;;;10.85;5.28;;;26.50;70.50;;;;;;6246027;23;20000;-76
2023/08/18 03:01:49;;;;;;;9.77;5.70;;;26.40;70.50;;;;;;6246426;23;20045;-77
2023/08/18 03:04:15;;;;;;;7.93;4.68;;;26.40;70.50;;;;;;6246825;23;20023;-74
2023/08/18 03:06:41;;;;;;;9.73;4.85;;;26.30;70.10;;;;;;6246653;23;20043;-75
2023/08/18 03:09:07;;;;;;;9.13;5.57;;;26.30;70.40;;;;;;6219938;23;20015;-76
2023/08/18 03:11:33;;;;;;;6.95;4.70;;;26.30;70.00;;;;;;6246141;23;19996;-76
2023/08/18 03:13:59;;;;;;;8.38;5.00;;;26.30;70.00;;;;;;6246551;23;20336;-75
2023/08/18 03:16:25;;;;;;;7.55;4.47;;;26.20;69.90;;;;;;6246804;23;19997;-75
2023/08/18 03:18:50;;;;;;;7.63;4.65;;;26.20;69.90;;;;;;6246108;23;20411;-76
2023/08/18 03:21:16;;;;;;;6.82;4.60;;;26.10;70.10;;;;;;6219412;23;20019;-76
2023/08/18 03:23:42;;;;;;;9.07;4.72;;;26.10;70.10;;;;;;6246510;23;20000;-76
2023/08/18 03:26:07;;;;;;;7.15;4.53;;;26.10;70.00;;;;;;6246237;23;20012;-75
2023/08/18 03:28:38;;;;;;;8.85;4.97;;;26.10;69.90;;;;;;6246550;23;20008;-76
2023/08/18 03:31:05;;;;;;;7.95;4.57;;;26.10;70.20;;;;;;6246243;23;19997;-77
2023/08/18 03:33:31;;;;;;;8.32;4.47;;;26.10;70.20;;;;;;6246719;23;20011;-76
2023/08/18 03:35:58;;;;;;;8.18;4.55;;;26.10;70.00;;;;;;6249000;23;19996;-75
2023/08/18 03:38:23;;;;;;;6.82;4.43;;;26.00;70.30;;;;;;6247669;23;20079;-76
2023/08/18 03:40:56;;;;;;;7.70;4.50;;;26.00;70.30;;;;;;6245791;23;20000;-76
2023/08/18 03:43:21;;;;;;;7.82;4.60;;;26.00;70.30;;;;;;6246211;23;20003;-77
2023/08/18 03:45:47;;;;;;;6.85;4.30;;;26.10;70.10;;;;;;6246415;23;20000;-76
2023/08/18 03:48:13;;;;;;;6.88;4.70;;;26.10;70.10;;;;;;6246254;23;19998;-76
2023/08/18 03:50:39;;;;;;;7.15;4.38;;;26.00;69.90;;;;;;6246129;23;20066;-75
2023/08/18 03:53:05;;;;;;;6.50;4.70;;;26.00;70.00;;;;;;6246796;23;20016;-76
2023/08/18 03:55:31;;;;;;;9.23;4.30;;;26.00;69.90;;;;;;6246596;23;20381;-76
2023/08/18 03:57:57;;;;;;;9.25;4.20;;;26.00;69.70;;;;;;6246284;23;20496;-76
2023/08/18 04:00:22;;;;;;;7.43;4.38;;;26.00;69.90;;;;;;6245996;23;20000;-77
2023/08/18 04:02:48;;;;;;;6.43;4.53;;;25.90;70.00;;;;;;6245881;23;20111;-76
2023/08/18 04:05:14;;;;;;;7.28;4.47;;;26.00;70.20;;;;;;6245850;23;20099;-77
2023/08/18 04:07:40;;;;;;;7.32;4.50;;;26.10;69.80;;;;;;6218546;23;20003;-76
2023/08/18 04:10:07;;;;;;;10.32;5.10;;;26.10;69.70;;;;;;6218719;23;20377;-76
2023/08/18 04:12:33;;;;;;;8.43;4.95;;;26.10;69.90;;;;;;6245237;23;20023;-76
2023/08/18 04:14:59;;;;;;;18.13;4.97;;;26.20;70.10;;;;;;6218582;23;20050;-76
2023/08/18 04:17:24;;;;;;;8.50;5.00;;;26.10;70.10;;;;;;6245874;23;20004;-77
2023/08/18 04:19:50;;;;;;;9.48;5.50;;;26.20;70.20;;;;;;6245539;23;20441;-75
2023/08/18 04:22:16;;;;;;;12.20;5.18;;;26.20;70.10;;;;;;6246100;23;20031;-77
2023/08/18 04:24:41;;;;;;;8.60;5.13;;;26.10;70.30;;;;;;6246018;23;20302;-76
2023/08/18 04:27:07;;;;;;;9.68;5.38;;;26.20;70.60;;;;;;6245450;23;20051;-76
2023/08/18 04:29:33;;;;;;;7.03;5.10;;;26.20;70.70;;;;;;6246231;23;20008;-77
2023/08/18 04:31:58;;;;;;;10.63;5.38;;;26.20;70.80;;;;;;6245416;23;19996;-76
2023/08/18 04:34:25;;;;;;;9.27;5.20;;;26.20;70.90;;;;;;6245348;23;20370;-76
2023/08/18 04:36:51;;;;;;;8.13;4.95;;;26.10;71.00;;;;;;6245409;23;20407;-76
2023/08/18 04:39:16;;;;;;;7.18;5.00;;;26.10;70.80;;;;;;6245435;23;20004;-76
2023/08/18 04:41:42;;;;;;;6.25;4.55;;;26.10;70.90;;;;;;6245445;23;20090;-76
2023/08/18 04:44:08;;;;;;;12.63;5.22;;;26.00;71.00;;;;;;6245059;23;20366;-75
2023/08/18 04:46:34;;;;;;;9.65;5.28;;;26.00;70.90;;;;;;6245550;23;20333;-76
2023/08/18 04:48:59;;;;;;;10.57;4.95;;;26.10;70.80;;;;;;6245315;23;20015;-75
2023/08/18 04:51:26;;;;;;;9.93;4.80;;;26.10;70.40;;;;;;6245138;23;20334;-76
2023/08/18 04:53:52;;;;;;;7.05;4.80;;;26.00;70.50;;;;;;6245296;23;20001;-76
2023/08/18 04:56:18;;;;;;;9.63;4.85;;;26.10;70.40;;;;;;6245286;23;20031;-75
2023/08/18 04:58:43;;;;;;;8.95;4.82;;;26.10;70.30;;;;;;6246244;23;20047;-78
2023/08/18 05:01:09;;;;;;;9.63;4.72;;;26.10;70.30;;;;;;6245452;23;20000;-77
2023/08/18 05:03:35;;;;;;;9.48;5.07;;;26.10;70.00;;;;;;6245187;23;20000;-76
2023/08/18 05:06:08;;;;;;;8.68;5.07;;;26.20;69.90;;;;;;6245248;23;19997;-77
2023/08/18 05:08:35;;;;;;;9.30;4.78;;;26.20;69.00;;;;;;6245354;23;20380;-76
2023/08/18 05:11:06;;;;;;;7.10;4.55;;;26.20;69.50;;;;;;6245317;23;20000;-76
2023/08/18 05:13:35;;;;;;;9.50;4.82;;;26.30;69.60;;;;;;6245437;23;20429;-76
2023/08/18 05:16:01;;;;;;;10.38;4.88;;;26.30;68.80;;;;;;6245558;23;19996;-76
2023/08/18 05:18:30;;;;;;;9.98;4.45;;;26.30;69.30;;;;;;6245266;23;20008;-77
2023/08/18 05:21:00;;;;;;;9.57;4.68;;;26.40;68.80;;;;;;6245052;23;20445;-76
2023/08/18 05:23:26;;;;;;;8.63;4.65;;;26.40;69.00;;;;;;6244938;23;20043;-76
2023/08/18 05:25:54;;;;;;;9.18;4.90;;;26.50;68.80;;;;;;6245367;23;20027;-76
2023/08/18 05:28:24;;;;;;;12.40;5.55;;;26.50;68.70;;;;;;6245378;23;20436;-77
2023/08/18 05:30:52;;;;;;;8.02;4.90;;;26.60;68.50;;;;;;6245279;23;20004;-75
2023/08/18 05:33:18;;;;;;;12.85;6.93;;;26.60;68.50;;;;;;6245006;23;20099;-76
2023/08/18 05:35:44;;;;;;;6.90;4.97;;;26.70;68.20;;;;;;6245573;23;20016;-76
2023/08/18 05:38:13;;;;;;;11.88;5.68;;;26.60;68.00;;;;;;6245102;23;20438;-77
2023/08/18 05:40:46;;;;;;;9.27;4.95;;;26.70;67.90;;;;;;6217885;23;20085;-76
2023/08/18 05:43:13;;;;;;;7.15;4.75;;;26.80;67.50;;;;;;6245104;23;20000;-76
2023/08/18 05:45:40;;;;;;;9.80;4.95;;;26.90;67.90;;;;;;6245130;23;20326;-75
2023/08/18 05:48:06;;;;;;;8.23;4.85;;;27.10;67.40;;;;;;6245510;23;20013;-77
2023/08/18 05:50:32;;;;;;;7.15;4.88;;;27.40;67.30;;;;;;6218630;23;20349;-76
2023/08/18 05:53:00;;;;;;;11.32;4.82;;;27.80;66.50;;;;;;6266439;23;20000;-78
2023/08/18 05:55:27;;;;;;;8.30;5.45;;;28.00;65.80;;;;;;6252627;23;19997;-77
2023/08/18 05:57:54;;;;;;;8.25;5.10;;;28.20;65.40;;;;;;6245303;23;20016;-77
2023/08/18 06:00:20;;;;;;;11.27;4.70;;;28.40;64.90;;;;;;6245064;23;20067;-77
2023/08/18 06:02:46;;;;;;;7.28;4.50;;;28.50;64.60;;;;;;6244758;23;20378;-76
2023/08/18 06:05:12;;;;;;;5.88;4.05;;;28.70;64.40;;;;;;6246549;23;20020;-76
2023/08/18 06:07:42;;;;;;;7.65;5.15;;;29.00;64.00;;;;;;6220040;23;20388;-76
2023/08/18 06:10:09;;;;;;;7.20;4.32;;;29.10;63.60;;;;;;6247132;23;19996;-77
2023/08/18 06:12:35;;;;;;;8.05;4.68;;;29.40;63.20;;;;;;6246925;23;20326;-76
2023/08/18 06:15:01;;;;;;;7.43;5.07;;;29.60;62.50;;;;;;6246821;23;20001;-75
2023/08/18 06:17:27;;;;;;;9.90;5.05;;;29.80;62.30;;;;;;6246650;23;20438;-75
2023/08/18 06:19:53;;;;;;;9.35;4.70;;;29.80;61.80;;;;;;6246956;23;20007;-78
2023/08/18 06:22:19;;;;;;;9.18;4.85;;;29.90;61.80;;;;;;6247110;23;20000;-76
2023/08/18 06:24:45;;;;;;;8.05;4.70;;;30.00;61.00;;;;;;6247097;23;20010;-76
2023/08/18 06:27:11;;;;;;;7.72;4.28;;;30.00;61.10;;;;;;6245956;23;20004;-77
2023/08/18 06:29:38;;;;;;;9.57;5.05;;;30.20;60.90;;;;;;6246276;23;19996;-76
2023/08/18 06:32:04;;;;;;;9.48;5.03;;;30.50;60.40;;;;;;6246769;23;20367;-76
2023/08/18 06:34:30;;;;;;;11.65;5.20;;;30.70;59.80;;;;;;6246607;23;20079;-77
2023/08/18 06:36:56;;;;;;;14.30;5.80;;;30.90;59.70;;;;;;6246693;23;20032;-76
2023/08/18 06:39:21;;;;;;;9.63;5.90;;;31.00;59.00;;;;;;6219288;23;20410;-76
2023/08/18 06:41:47;;;;;;;8.55;5.15;;;31.20;59.00;;;;;;6246654;23;20170;-76
2023/08/18 06:44:13;;;;;;;8.25;5.30;;;31.30;58.50;;;;;;6246454;23;20034;-74
2023/08/18 06:46:39;;;;;;;10.00;5.63;;;31.50;58.30;;;;;;6246563;23;20000;-75
2023/08/18 06:49:05;;;;;;;8.15;5.05;;;31.60;58.00;;;;;;6246306;23;20307;-75
2023/08/18 06:51:30;;;;;;;8.45;4.47;;;31.60;57.60;;;;;;6246163;23;20032;-75
2023/08/18 06:53:56;;;;;;;6.53;4.03;;;31.60;57.50;;;;;;6219519;23;20058;-76
2023/08/18 06:56:22;;;;;;;8.27;4.63;;;31.80;57.40;;;;;;6219008;23;20011;-76
2023/08/18 06:58:48;;;;;;;8.52;4.22;;;31.80;57.30;;;;;;6246319;23;20023;-77
2023/08/18 07:01:13;;;;;;;8.43;4.63;;;31.80;57.00;;;;;;6246064;23;20055;-75
2023/08/18 07:03:39;;;;;;;11.70;4.60;;;31.80;56.90;;;;;;6246177;23;20012;-76
2023/08/18 07:06:05;;;;;;;5.80;4.15;;;31.70;57.10;;;;;;6245858;23;20000;-76
2023/08/18 07:08:32;;;;;;;11.80;5.07;;;31.70;57.20;;;;;;6245851;23;20004;-76
2023/08/18 07:10:58;;;;;;;9.52;4.32;;;31.80;57.00;;;;;;6245732;23;20003;-77
2023/08/18 07:13:24;;;;;;;7.80;5.07;;;31.80;57.30;;;;;;6245931;23;20004;-76
2023/08/18 07:15:49;;;;;;;11.68;4.40;;;31.80;57.00;;;;;;6245614;23;20307;-75
2023/08/18 07:18:17;;;;;;;6.97;4.40;;;31.70;57.40;;;;;;6245509;23;20008;-75
2023/08/18 07:20:43;;;;;;;12.68;5.05;;;31.70;57.30;;;;;;6245910;23;20027;-75
2023/08/18 07:23:09;;;;;;;9.13;4.20;;;31.70;57.70;;;;;;6245754;23;20015;-74
2023/08/18 07:25:36;;;;;;;6.80;4.50;;;31.60;57.70;;;;;;6245760;23;20000;-75
2023/08/18 07:28:03;;;;;;;7.40;3.97;;;31.80;57.80;;;;;;6245686;23;20334;-76
2023/08/18 07:30:29;;;;;;;9.93;4.43;;;31.80;57.50;;;;;;6245645;23;20453;-76
2023/08/18 07:32:55;;;;;;;7.35;4.63;;;31.90;57.50;;;;;;6246069;23;20019;-75
2023/08/18 07:35:22;;;;;;;9.07;5.88;;;32.10;57.20;;;;;;6246600;23;20015;-75
2023/08/18 07:37:48;;;;;;;8.43;4.82;;;32.20;56.90;;;;;;6247298;23;20387;-75
2023/08/18 07:40:13;;;;;;;8.07;4.63;;;32.20;56.70;;;;;;6242011;23;20008;-76
2023/08/18 07:42:39;;;;;;;7.50;4.32;;;32.10;56.90;;;;;;6254923;23;20007;-75
2023/08/18 07:45:06;;;;;;;10.50;4.15;;;32.20;56.90;;;;;;6245795;23;20010;-75
2023/08/18 07:47:32;;;;;;;8.73;4.35;;;32.10;56.50;;;;;;6245328;23;20004;-75
2023/08/18 07:49:58;;;;;;;8.63;4.38;;;32.10;56.80;;;;;;6245855;23;20019;-76
2023/08/18 07:52:24;;;;;;;10.50;4.22;;;32.00;57.40;;;;;;6245199;23;20036;-73
2023/08/18 07:54:50;;;;;;;9.77;4.03;;;32.00;56.90;;;;;;6245301;23;20004;-76
2023/08/18 07:57:16;;;;;;;6.97;3.75;;;31.90;56.50;;;;;;6245378;23;20438;-76
2023/08/18 07:59:42;;;;;;;9.07;4.25;;;31.90;56.70;;;;;;6244893;23;20028;-77
2023/08/18 08:02:08;;;;;;;8.10;4.45;;;32.00;56.60;;;;;;6245219;23;20314;-76
2023/08/18 08:04:33;;;;;;;7.00;3.90;;;31.90;56.60;;;;;;6245028;23;20883;-75
2023/08/18 08:06:59;;;;;;;9.35;4.00;;;31.90;56.60;;;;;;6245384;23;20007;-75
2023/08/18 08:09:25;;;;;;;6.68;3.83;;;31.90;56.70;;;;;;6245267;23;20024;-75
2023/08/18 08:11:52;;;;;;;7.05;4.00;;;31.90;56.70;;;;;;6245228;23;20075;-77
2023/08/18 08:14:19;;;;;;;11.18;3.70;;;31.80;56.70;;;;;;6245105;23;20000;-76
2023/08/18 08:16:45;;;;;;;8.60;4.10;;;31.70;56.90;;;;;;6245110;23;20000;-76
2023/08/18 08:19:13;;;;;;;5.68;3.50;;;31.60;56.90;;;;;;6244887;23;20004;-76
2023/08/18 08:21:40;;;;;;;9.95;4.50;;;31.70;56.80;;;;;;6245287;23;20015;-76
2023/08/18 08:24:06;;;;;;;10.95;3.78;;;31.60;56.40;;;;;;6217979;23;20008;-76
2023/08/18 08:26:32;;;;;;;9.18;4.32;;;31.50;56.30;;;;;;6244689;23;20000;-77
2023/08/18 08:28:58;;;;;;;7.00;4.28;;;31.50;56.60;;;;;;6244947;23;20430;-76
2023/08/18 08:31:23;;;;;;;8.82;3.97;;;31.40;56.80;;;;;;6244786;23;20109;-76
2023/08/18 08:33:49;;;;;;;12.70;4.35;;;31.40;57.00;;;;;;6217487;23;20091;-75
2023/08/18 08:36:15;;;;;;;11.50;4.60;;;31.20;57.20;;;;;;6244602;23;20007;-73
2023/08/18 08:38:42;;;;;;;8.40;4.13;;;31.20;57.40;;;;;;6244215;23;20035;-76
2023/08/18 08:41:08;;;;;;;11.07;4.63;;;31.20;57.50;;;;;;6244986;23;20008;-75
2023/08/18 08:43:34;;;;;;;10.40;5.00;;;31.20;57.60;;;;;;6244746;23;20041;-76
2023/08/18 08:46:00;;;;;;;8.15;4.50;;;31.20;57.30;;;;;;6244729;23;20061;-75
2023/08/18 08:48:37;;;;;;;9.52;5.20;;;31.20;57.30;;;;;;6244729;23;20039;-75
2023/08/18 08:51:04;;;;;;;7.28;4.55;;;31.10;57.50;;;;;;6217609;23;20345;-76
2023/08/18 08:53:37;;;;;;;11.38;4.72;;;31.10;57.20;;;;;;6245115;23;20015;-77
2023/08/18 08:56:03;;;;;;;7.93;4.63;;;31.10;57.10;;;;;;6244579;23;19996;-76
2023/08/18 08:58:32;;;;;;;15.25;4.68;;;31.10;56.90;;;;;;6244304;23;20034;-75
2023/08/18 09:01:00;;;;;;;7.03;4.40;;;31.10;56.80;;;;;;6244287;23;20000;-76
2023/08/18 09:03:27;;;;;;;8.77;4.25;;;31.00;56.70;;;;;;6244435;23;20066;-76
2023/08/18 09:05:54;;;;;;;6.60;3.58;;;31.10;56.60;;;;;;6244913;23;20430;-76
2023/08/18 09:08:20;;;;;;;8.07;4.60;;;31.10;56.60;;;;;;6244561;23;20004;-75
2023/08/18 09:10:46;;;;;;;9.30;4.10;;;31.10;56.30;;;;;;6244810;23;20001;-75
2023/08/18 09:13:12;;;;;;;7.53;4.43;;;31.20;56.10;;;;;;6244621;23;20039;-76
2023/08/18 09:15:41;;;;;;;8.40;4.90;;;31.20;56.20;;;;;;6244791;23;20368;-76
2023/08/18 09:18:07;;;;;;;9.32;4.35;;;31.20;55.70;;;;;;6244657;23;20399;-77
2023/08/18 09:20:34;;;;;;;8.95;3.97;;;31.20;55.50;;;;;;6217008;23;20011;-77
2023/08/18 09:23:00;;;;;;;12.07;4.15;;;31.20;55.30;;;;;;6243985;23;20004;-76
2023/08/18 09:25:26;;;;;;;9.52;4.28;;;31.20;54.90;;;;;;6244115;23;20445;-77
2023/08/18 09:27:52;;;;;;;14.05;4.65;;;31.20;55.00;;;;;;6244006;23;20000;-77
2023/08/18 09:30:17;;;;;;;11.80;4.50;;;31.20;55.00;;;;;;6243987;23;20012;-77
2023/08/18 09:32:44;;;;;;;8.80;4.10;;;31.20;55.10;;;;;;6243846;23;20327;-77
2023/08/18 09:35:11;;;;;;;7.32;4.32;;;31.30;55.50;;;;;;6244397;23;20464;-76
2023/08/18 09:37:37;;;;;;;7.85;4.72;;;31.40;55.40;;;;;;6244703;23;20047;-78
2023/08/18 09:40:03;;;;;;;7.78;4.03;;;31.50;55.10;;;;;;6245850;23;19996;-75
2023/08/18 09:42:29;;;;;;;7.00;4.10;;;31.50;54.20;;;;;;6246121;23;20012;-76
2023/08/18 09:44:56;;;;;;;7.43;4.60;;;31.60;54.50;;;;;;6246549;23;20327;-76
2023/08/18 09:47:30;;;;;;;11.93;4.65;;;31.60;54.40;;;;;;6246971;23;20315;-75
2023/08/18 09:49:57;;;;;;;11.93;4.43;;;31.60;54.20;;;;;;6246419;23;20078;-76
2023/08/18 09:52:28;;;;;;;7.35;4.65;;;31.60;54.20;;;;;;6246060;23;20015;-75
2023/08/18 09:55:06;;;;;;;12.15;4.30;;;31.80;54.20;;;;;;6246033;23;20028;-76
2023/08/18 09:57:42;;;;;;;8.38;4.65;;;31.80;54.10;;;;;;6246369;23;20008;-76
2023/08/18 10:00:11;;;;;;;8.65;4.38;;;31.90;53.90;;;;;;6246274;23;20444;-76
2023/08/18 10:02:38;;;;;;;8.40;4.20;;;31.90;53.30;;;;;;6246329;23;20023;-76
2023/08/18 10:05:04;;;;;;;8.38;4.10;;;31.90;53.50;;;;;;6246434;23;20016;-77
2023/08/18 10:07:32;;;;;;;5.80;3.65;;;31.90;53.20;;;;;;6246322;23;20028;-75
2023/08/18 10:09:58;;;;;;;8.57;4.32;;;31.90;53.60;;;;;;6194532;23;20013;-76
2023/08/18 10:12:24;;;;;;;7.45;4.47;;;31.90;53.70;;;;;;6246037;23;20323;-76
2023/08/18 10:14:52;;;;;;;11.00;4.95;;;32.10;53.40;;;;;;6245578;23;20011;-76
2023/08/18 10:17:21;;;;;;;8.55;4.70;;;32.10;53.00;;;;;;6245963;23;20370;-77
2023/08/18 10:20:00;;;;;;;6.70;4.30;;;32.20;52.60;;;;;;6245471;23;20434;-76
2023/08/18 10:22:28;;;;;;;9.02;4.28;;;32.30;52.30;;;;;;6246616;23;20332;-76
2023/08/18 10:24:55;;;;;;;8.10;4.70;;;32.30;52.30;;;;;;6247484;23;20005;-76
2023/08/18 10:27:26;;;;;;;6.63;4.65;;;32.30;52.10;;;;;;6247406;23;20423;-76
2023/08/18 10:29:57;;;;;;;8.07;4.63;;;32.40;51.80;;;;;;6245868;23;20000;-76
2023/08/18 10:32:23;;;;;;;6.50;4.45;;;32.50;52.10;;;;;;6245995;23;20050;-75
2023/08/18 10:34:52;;;;;;;9.95;5.00;;;32.60;51.60;;;;;;6246038;23;20007;-76
2023/08/18 10:37:22;;;;;;;6.07;4.53;;;32.70;51.20;;;;;;6245777;23;20004;-75
2023/08/18 10:39:50;;;;;;;7.72;4.30;;;32.70;51.10;;;;;;6245798;23;20004;-76
2023/08/18 10:42:16;;;;;;;8.52;4.95;;;32.80;51.00;;;;;;6245813;23;20000;-78
2023/08/18 10:45:03;;;;;;;9.50;4.57;;;32.80;50.90;;;;;;6246057;23;20054;-74
2023/08/18 10:47:33;;;;;;;9.88;4.88;;;32.90;50.60;;;;;;6245801;23;20508;-76
2023/08/18 10:50:00;;;;;;;10.65;4.80;;;33.00;50.60;;;;;;6245630;23;20012;-77
2023/08/18 10:52:30;;;;;;;6.70;4.28;;;33.00;51.00;;;;;;6245532;23;20000;-76
2023/08/18 10:54:56;;;;;;;10.18;4.70;;;33.00;50.80;;;;;;6219052;23;20340;-76
2023/08/18 10:57:23;;;;;;;8.50;5.00;;;33.10;50.80;;;;;;6245377;23;20103;-77
2023/08/18 10:59:48;;;;;;;6.57;4.80;;;33.10;51.20;;;;;;6245827;23;20023;-76
2023/08/18 11:02:16;;;;;;;9.32;4.65;;;33.20;50.50;;;;;;6245474;23;20056;-76
2023/08/18 11:04:42;;;;;;;9.57;4.35;;;33.20;50.00;;;;;;6245606;23;20389;-74
2023/08/18 11:07:08;;;;;;;6.95;4.55;;;33.30;50.00;;;;;;6245582;23;20015;-76
2023/08/18 11:09:36;;;;;;;8.05;4.72;;;33.40;49.90;;;;;;6245471;23;20036;-76
2023/08/18 11:12:03;;;;;;;10.20;5.30;;;33.50;49.80;;;;;;6245718;23;20001;-75
2023/08/18 11:14:29;;;;;;;7.70;5.53;;;33.50;49.30;;;;;;6245393;23;20395;-76
2023/08/18 11:16:55;;;;;;;7.60;4.70;;;33.60;49.20;;;;;;6245373;23;20035;-75
2023/08/18 11:19:21;;;;;;;7.70;4.68;;;33.70;48.70;;;;;;6245226;23;20436;-76
2023/08/18 11:21:47;;;;;;;7.85;5.32;;;33.80;48.50;;;;;;6244936;23;20000;-77
2023/08/18 11:24:13;;;;;;;7.97;4.75;;;33.80;48.10;;;;;;6245478;23;20403;-76
2023/08/18 11:26:39;;;;;;;7.32;4.85;;;33.80;48.30;;;;;;6245301;23;19999;-76
2023/08/18 11:29:06;;;;;;;8.18;5.18;;;33.90;48.20;;;;;;6218579;23;20032;-76
2023/08/18 11:31:32;;;;;;;8.02;5.13;;;33.90;48.40;;;;;;6245317;23;19996;-75
2023/08/18 11:33:58;;;;;;;8.07;5.00;;;34.00;47.80;;;;;;6245549;23;20541;-76
2023/08/18 11:36:31;;;;;;;9.15;5.32;;;34.00;47.80;;;;;;6245353;23;20330;-74
2023/08/18 11:39:06;;;;;;;8.40;5.30;;;34.10;47.90;;;;;;6245359;23;20015;-76
2023/08/18 11:41:43;;;;;;;8.52;4.95;;;34.20;47.60;;;;;;6245440;23;20019;-75
2023/08/18 11:44:09;;;;;;;8.73;5.25;;;34.20;46.80;;;;;;6245342;23;20015;-76
2023/08/18 11:46:39;;;;;;;7.28;5.05;;;34.20;47.40;;;;;;6218267;23;20306;-77
2023/08/18 11:49:18;;;;;;;8.13;5.45;;;34.30;46.90;;;;;;6245081;23;20031;-76
2023/08/18 11:51:57;;;;;;;8.00;5.05;;;34.40;46.90;;;;;;6245564;23;20008;-76
2023/08/18 11:54:24;;;;;;;7.45;5.13;;;34.40;46.90;;;;;;6245345;23;20014;-76
2023/08/18 11:56:51;;;;;;;9.25;5.25;;;34.50;47.00;;;;;;6244698;23;20071;-76
2023/08/18 11:59:23;;;;;;;7.95;4.72;;;34.60;46.70;;;;;;6244869;23;20012;-75
2023/08/18 12:02:00;;;;;;;7.63;5.45;;;34.70;46.80;;;;;;6244676;23;19997;-77
2023/08/18 12:04:30;;;;;;;8.52;5.18;;;34.60;45.90;;;;;;6244812;23;20438;-76
2023/08/18 12:06:55;;;;;;;8.27;5.40;;;34.70;46.60;;;;;;6244792;23;20000;-76
2023/08/18 12:09:22;;;;;;;8.48;5.75;;;34.80;46.40;;;;;;6244566;23;20415;-75
2023/08/18 12:11:49;;;;;;;10.48;5.25;;;34.80;45.90;;;;;;6244988;23;20000;-77
2023/08/18 12:14:16;;;;;;;7.53;5.10;;;34.80;45.80;;;;;;6244771;23;20453;-74
2023/08/18 12:16:42;;;;;;;8.02;5.05;;;34.90;45.70;;;;;;6244728;23;20004;-76
2023/08/18 12:19:08;;;;;;;8.10;5.05;;;34.90;45.60;;;;;;6244694;23;20078;-76
2023/08/18 12:21:38;;;;;;;9.88;5.75;;;35.00;45.70;;;;;;6217670;23;20000;-75
2023/08/18 12:24:05;;;;;;;8.07;5.30;;;35.00;45.60;;;;;;6244848;23;20000;-76
2023/08/18 12:26:32;;;;;;;10.95;5.43;;;35.10;45.60;;;;;;6244802;23;20075;-75
2023/08/18 12:28:58;;;;;;;7.88;4.97;;;35.10;45.30;;;;;;6244735;23;20000;-78
2023/08/18 12:31:24;;;;;;;8.07;4.78;;;35.20;45.30;;;;;;6244729;23;20079;-76
2023/08/18 12:33:53;;;;;;;12.07;5.22;;;35.30;45.90;;;;;;6244677;23;20095;-76
2023/08/18 12:36:19;;;;;;;9.02;5.00;;;35.30;47.50;;;;;;6244825;23;20008;-75
2023/08/18 12:38:48;;;;;;;8.57;4.47;;;35.30;48.60;;;;;;6244844;23;20066;-77
2023/08/18 12:41:14;;;;;;;7.70;4.63;;;35.30;49.10;;;;;;6244605;23;20329;-77
2023/08/18 12:43:43;;;;;;;8.13;4.88;;;35.30;49.20;;;;;;6244820;23;20008;-77
2023/08/18 12:46:09;;;;;;;10.02;4.78;;;35.30;48.90;;;;;;6245016;23;20003;-77